Kahloke — CZ3845 — position and weather

sailwx.info

Track history (hours):
 
Tides and Currents Weather Stations Pressure Air Temp Water Temp Dewpoint Dewpoint Depression Visibility Wind Speed Wind Dir Waves Ship Positions

Kahloke

Last reported at 2017-Mar-23 01:33 UTC. Time now 2017-Mar-23 10:31 UTC.
Position N 49°30' W 124°43'.

Length 54 m; draft 2 m.

Type: Passenger vessel. MMSI: 316001236.

Date/timePositionNaut miles runAvg speedWind from/ knotsBaromVisibWave heightAir tempDewpointWater temp
2017-Mar-23 01:33N 49°30' W 124°43'0 0.0
2017-Mar-23 00:33N 49°30' W 124°43'0 0.0
2017-Mar-22 23:33N 49°30' W 124°43'0 0.0
2017-Mar-22 22:32N 49°30' W 124°43'0 0.0
2017-Mar-22 21:33N 49°30' W 124°43'0 0.0
2017-Mar-22 20:33N 49°30' W 124°43'0 0.0
2017-Mar-22 19:32N 49°30' W 124°43'0 0.0
2017-Mar-22 18:33N 49°30' W 124°43'0 0.0
2017-Mar-22 17:33N 49°30' W 124°43'643.4
2017-Mar-22 17:25N 49°32' W 124°51'6 6.6
2017-Mar-22 16:33N 49°30' W 124°43'1 1.0
2017-Mar-22 15:33N 49°31' W 124°42'0 0.2
2017-Mar-22 14:31N 49°30' W 124°42'0 0.0
2017-Mar-22 02:06N 49°31' W 124°42'1 1.9
2017-Mar-22 01:33N 49°30' W 124°43'0 0.0
2017-Mar-22 00:33N 49°30' W 124°43'0 0.0
2017-Mar-21 23:33N 49°30' W 124°43'0 0.0
2017-Mar-21 22:33N 49°30' W 124°43'0 0.0
2017-Mar-21 21:33N 49°30' W 124°43'0 0.0
2017-Mar-21 20:33N 49°30' W 124°43'0 0.0
2017-Mar-21 19:33N 49°30' W 124°43'0 0.0
2017-Mar-21 18:33N 49°30' W 124°43'0 0.0
2017-Mar-21 17:33N 49°30' W 124°43'0 0.0
2017-Mar-21 16:33N 49°30' W 124°43'1 0.8
2017-Mar-21 15:33N 49°30' W 124°42'0 0.2
2017-Mar-21 14:33N 49°30' W 124°42'0 0.1
2017-Mar-21 06:28N 49°31' W 124°42'1 0.2
2017-Mar-21 01:34N 49°30' W 124°43'0 0.0
2017-Mar-21 00:33N 49°30' W 124°43'0 0.0
2017-Mar-20 23:33N 49°30' W 124°43'0 0.0
2017-Mar-20 22:34N 49°30' W 124°43'611.8
2017-Mar-20 22:04N 49°32' W 124°51'611.1
2017-Mar-20 21:33N 49°30' W 124°43'0 0.0
2017-Mar-20 20:34N 49°30' W 124°43'0 0.0
2017-Mar-20 19:33N 49°30' W 124°43'0 0.0
2017-Mar-20 18:34N 49°30' W 124°43'0 0.0
2017-Mar-20 17:33N 49°30' W 124°43'611.9
2017-Mar-20 17:04N 49°32' W 124°51'611.2
2017-Mar-20 16:34N 49°30' W 124°43'630.7
2017-Mar-20 16:22N 49°32' W 124°51'6 7.0
2017-Mar-20 15:33N 49°30' W 124°42'672.5
2017-Mar-20 15:28N 49°32' W 124°51'6 6.3
2017-Mar-20 14:34N 49°30' W 124°42'620.0
2017-Mar-20 14:16N 49°32' W 124°51'6 0.5
2017-Mar-20 01:33N 49°30' W 124°43'0 0.0
2017-Mar-20 00:33N 49°30' W 124°43'0 0.0
2017-Mar-19 23:33N 49°30' W 124°43'0 0.0
2017-Mar-19 22:33N 49°30' W 124°43'0 0.4
2017-Mar-19 21:33N 49°30' W 124°42'0 0.4
2017-Mar-19 20:33N 49°30' W 124°43'0 0.0
2017-Mar-19 19:33N 49°30' W 124°43'0 0.0
2017-Mar-19 18:33N 49°30' W 124°43'0 0.0
2017-Mar-19 17:34N 49°30' W 124°43'0 0.0
2017-Mar-19 16:32N 49°30' W 124°43'1 1.0
2017-Mar-19 15:33N 49°31' W 124°42'1 0.1
2017-Mar-19 01:34N 49°30' W 124°43'0 0.0
2017-Mar-19 00:34N 49°30' W 124°43'0 0.0
2017-Mar-18 23:33N 49°30' W 124°43'0 0.0
2017-Mar-18 22:33N 49°30' W 124°43'1 0.7
2017-Mar-18 21:32N 49°30' W 124°42'1 0.8
2017-Mar-18 20:33N 49°30' W 124°43'0 0.0
2017-Mar-18 19:34N 49°30' W 124°43'0 0.0
2017-Mar-18 18:27N 49°30' W 124°43'0 0.0
2017-Mar-18 17:32N 49°30' W 124°43'0 0.0
2017-Mar-18 16:32N 49°30' W 124°43'1 1.0
2017-Mar-18 15:33N 49°31' W 124°42'0 0.0
2017-Mar-18 09:26N 49°31' W 124°42'0 0.0
2017-Mar-18 08:32N 49°31' W 124°42'0 0.0
2017-Mar-18 05:16N 49°31' W 124°42'0 0.4
2017-Mar-18 04:33N 49°30' W 124°42'1 0.8
2017-Mar-18 03:33N 49°30' W 124°43'1 1.0
2017-Mar-18 02:30N 49°31' W 124°42'1 1.1
2017-Mar-18 01:33N 49°30' W 124°43'0 0.0
2017-Mar-18 00:33N 49°30' W 124°43'0 0.0
2017-Mar-17 23:33N 49°30' W 124°43'0 0.0
2017-Mar-17 22:33N 49°30' W 124°43'666.2
2017-Mar-17 22:28N 49°32' W 124°51'6 6.3
2017-Mar-17 21:33N 49°30' W 124°43'0 0.0
2017-Mar-17 20:33N 49°30' W 124°43'0 0.0
2017-Mar-17 19:33N 49°30' W 124°43'0 0.0
2017-Mar-17 18:33N 49°30' W 124°43'0 0.0
2017-Mar-17 17:30N 49°30' W 124°43'0 0.0
2017-Mar-17 16:33N 49°30' W 124°43'0 0.3
2017-Mar-17 15:32N 49°30' W 124°42'1 0.5
2017-Mar-17 14:33N 49°30' W 124°42'0 0.0
2017-Mar-17 06:14N 49°31' W 124°42'6330.3
2017-Mar-17 06:13N 49°32' W 124°51'6 3.2
2017-Mar-17 04:26N 49°31' W 124°42'0 0.0
2017-Mar-17 03:26N 49°31' W 124°42'1 0.5
2017-Mar-17 01:33N 49°30' W 124°43'0 0.0
2017-Mar-17 00:33N 49°30' W 124°43'0 0.0
2017-Mar-16 23:33N 49°30' W 124°43'0 0.0
2017-Mar-16 22:33N 49°30' W 124°43'0 0.0
2017-Mar-16 21:33N 49°30' W 124°43'0 0.0
2017-Mar-16 20:33N 49°30' W 124°43'0 0.0
2017-Mar-16 19:34N 49°30' W 124°43'0 0.0
2017-Mar-16 18:33N 49°30' W 124°43'0 0.0
2017-Mar-16 17:33N 49°30' W 124°43'625.4
2017-Mar-16 17:19N 49°32' W 124°51'6 7.5
2017-Mar-16 16:33N 49°30' W 124°43'0 0.4
2017-Mar-16 15:32N 49°30' W 124°42'0 0.3
2017-Mar-16 14:32N 49°30' W 124°42'0 0.0
2017-Mar-16 07:24N 49°31' W 124°42'1 0.2
2017-Mar-16 01:33N 49°30' W 124°43'0 0.0
2017-Mar-16 00:32N 49°30' W 124°43'0 0.0
2017-Mar-15 23:33N 49°30' W 124°43'0 0.0
2017-Mar-15 22:33N 49°30' W 124°43'0 0.0
2017-Mar-15 21:33N 49°30' W 124°43'0 0.1
2017-Mar-15 20:33N 49°30' W 124°43'0 0.1
2017-Mar-15 19:33N 49°30' W 124°43'0 0.0
2017-Mar-15 18:33N 49°30' W 124°43'0 0.0
2017-Mar-15 17:33N 49°30' W 124°43'642.5
2017-Mar-15 17:25N 49°32' W 124°51'6 6.6
2017-Mar-15 16:33N 49°30' W 124°43'1 1.0
2017-Mar-15 15:31N 49°31' W 124°42'0 0.0
2017-Mar-15 12:05N 49°31' W 124°42'0 0.0
2017-Mar-15 11:29N 49°31' W 124°42'0 0.0
2017-Mar-15 10:10N 49°31' W 124°42'0 0.0
2017-Mar-15 07:07N 49°31' W 124°42'6 2.8
2017-Mar-15 05:04N 49°32' W 124°51'6 2.1
2017-Mar-15 02:19N 49°31' W 124°42'1 1.3
2017-Mar-15 01:33N 49°30' W 124°43'0 0.0
2017-Mar-15 00:33N 49°30' W 124°43'0 0.0
2017-Mar-14 23:33N 49°30' W 124°43'0 0.0
2017-Mar-14 22:33N 49°30' W 124°43'0 0.1
2017-Mar-14 21:33N 49°30' W 124°42'0 0.1
2017-Mar-14 20:34N 49°30' W 124°43'0 0.0
2017-Mar-14 19:34N 49°30' W 124°43'0 0.0
2017-Mar-14 18:33N 49°30' W 124°43'0 0.0
2017-Mar-14 17:34N 49°30' W 124°43'0 0.0
2017-Mar-14 16:34N 49°30' W 124°43'1 0.9
2017-Mar-14 15:33N 49°31' W 124°42'0 0.1
2017-Mar-14 14:34N 49°30' W 124°42'0 0.1
2017-Mar-14 12:07N 49°31' W 124°42'0 0.0
2017-Mar-14 02:13N 49°31' W 124°42'1 1.5
2017-Mar-14 01:33N 49°30' W 124°43'0 0.0
2017-Mar-14 00:33N 49°30' W 124°43'0 0.0
2017-Mar-13 23:33N 49°30' W 124°43'0 0.0
2017-Mar-13 22:33N 49°30' W 124°43'0 0.0
2017-Mar-13 21:33N 49°30' W 124°43'0 0.0
2017-Mar-13 20:33N 49°30' W 124°43'0 0.0
2017-Mar-13 19:33N 49°30' W 124°43'0 0.0
2017-Mar-13 18:33N 49°30' W 124°43'0 0.0
2017-Mar-13 17:33N 49°30' W 124°43'0 0.0
2017-Mar-13 16:32N 49°30' W 124°43'0 0.1
2017-Mar-13 15:32N 49°30' W 124°42'1 0.7
2017-Mar-13 14:32N 49°30' W 124°42'0 0.2
2017-Mar-13 13:26N 49°31' W 124°42'6 5.2
2017-Mar-13 12:20N 49°32' W 124°51'6 3.0
2017-Mar-13 10:27N 49°31' W 124°42'653.3
2017-Mar-13 10:20N 49°32' W 124°51'6 7.0
2017-Mar-13 09:31N 49°31' W 124°42'0 0.0
2017-Mar-13 08:32N 49°31' W 124°42'0 0.0
2017-Mar-13 07:11N 49°31' W 124°42'0 0.0
2017-Mar-13 06:17N 49°31' W 124°42'6 2.9
2017-Mar-13 04:20N 49°32' W 124°51'0 0.0
2017-Mar-13 03:32N 49°32' W 124°51'6 4.0
2017-Mar-13 02:08N 49°31' W 124°42'  
Track history (hours):
 
Tides and Currents Weather Stations Pressure Air Temp Water Temp Dewpoint Dewpoint Depression Visibility Wind Speed Wind Dir Waves Ship Positions

Kahloke

Last reported at 2017-Mar-23 01:33 UTC. Time now 2017-Mar-23 10:31 UTC.
Position N 49°30' W 124°43'.

Length 54 m; draft 2 m.

Type: Passenger vessel. MMSI: 316001236.

Date/timePositionNaut miles runAvg speedWind from/ knotsBaromVisibWave heightAir tempDewpointWater temp
2017-Mar-23 01:33N 49°30' W 124°43'0 0.0
2017-Mar-23 00:33N 49°30' W 124°43'0 0.0
2017-Mar-22 23:33N 49°30' W 124°43'0 0.0
2017-Mar-22 22:32N 49°30' W 124°43'0 0.0
2017-Mar-22 21:33N 49°30' W 124°43'0 0.0
2017-Mar-22 20:33N 49°30' W 124°43'0 0.0
2017-Mar-22 19:32N 49°30' W 124°43'0 0.0
2017-Mar-22 18:33N 49°30' W 124°43'0 0.0
2017-Mar-22 17:33N 49°30' W 124°43'643.4
2017-Mar-22 17:25N 49°32' W 124°51'6 6.6
2017-Mar-22 16:33N 49°30' W 124°43'1 1.0
2017-Mar-22 15:33N 49°31' W 124°42'0 0.2
2017-Mar-22 14:31N 49°30' W 124°42'0 0.0
2017-Mar-22 02:06N 49°31' W 124°42'1 1.9
2017-Mar-22 01:33N 49°30' W 124°43'0 0.0
2017-Mar-22 00:33N 49°30' W 124°43'0 0.0
2017-Mar-21 23:33N 49°30' W 124°43'0 0.0
2017-Mar-21 22:33N 49°30' W 124°43'0 0.0
2017-Mar-21 21:33N 49°30' W 124°43'0 0.0
2017-Mar-21 20:33N 49°30' W 124°43'0 0.0
2017-Mar-21 19:33N 49°30' W 124°43'0 0.0
2017-Mar-21 18:33N 49°30' W 124°43'0 0.0
2017-Mar-21 17:33N 49°30' W 124°43'0 0.0
2017-Mar-21 16:33N 49°30' W 124°43'1 0.8
2017-Mar-21 15:33N 49°30' W 124°42'0 0.2
2017-Mar-21 14:33N 49°30' W 124°42'0 0.1
2017-Mar-21 06:28N 49°31' W 124°42'1 0.2
2017-Mar-21 01:34N 49°30' W 124°43'0 0.0
2017-Mar-21 00:33N 49°30' W 124°43'0 0.0
2017-Mar-20 23:33N 49°30' W 124°43'0 0.0
2017-Mar-20 22:34N 49°30' W 124°43'611.8
2017-Mar-20 22:04N 49°32' W 124°51'611.1
2017-Mar-20 21:33N 49°30' W 124°43'0 0.0
2017-Mar-20 20:34N 49°30' W 124°43'0 0.0
2017-Mar-20 19:33N 49°30' W 124°43'0 0.0
2017-Mar-20 18:34N 49°30' W 124°43'0 0.0
2017-Mar-20 17:33N 49°30' W 124°43'611.9
2017-Mar-20 17:04N 49°32' W 124°51'611.2
2017-Mar-20 16:34N 49°30' W 124°43'630.7
2017-Mar-20 16:22N 49°32' W 124°51'6 7.0
2017-Mar-20 15:33N 49°30' W 124°42'672.5
2017-Mar-20 15:28N 49°32' W 124°51'6 6.3
2017-Mar-20 14:34N 49°30' W 124°42'620.0
2017-Mar-20 14:16N 49°32' W 124°51'6 0.5
2017-Mar-20 01:33N 49°30' W 124°43'0 0.0
2017-Mar-20 00:33N 49°30' W 124°43'0 0.0
2017-Mar-19 23:33N 49°30' W 124°43'0 0.0
2017-Mar-19 22:33N 49°30' W 124°43'0 0.4
2017-Mar-19 21:33N 49°30' W 124°42'0 0.4
2017-Mar-19 20:33N 49°30' W 124°43'0 0.0
2017-Mar-19 19:33N 49°30' W 124°43'0 0.0
2017-Mar-19 18:33N 49°30' W 124°43'0 0.0
2017-Mar-19 17:34N 49°30' W 124°43'0 0.0
2017-Mar-19 16:32N 49°30' W 124°43'1 1.0
2017-Mar-19 15:33N 49°31' W 124°42'1 0.1
2017-Mar-19 01:34N 49°30' W 124°43'0 0.0
2017-Mar-19 00:34N 49°30' W 124°43'0 0.0
2017-Mar-18 23:33N 49°30' W 124°43'0 0.0
2017-Mar-18 22:33N 49°30' W 124°43'1 0.7
2017-Mar-18 21:32N 49°30' W 124°42'1 0.8
2017-Mar-18 20:33N 49°30' W 124°43'0 0.0
2017-Mar-18 19:34N 49°30' W 124°43'0 0.0
2017-Mar-18 18:27N 49°30' W 124°43'0 0.0
2017-Mar-18 17:32N 49°30' W 124°43'0 0.0
2017-Mar-18 16:32N 49°30' W 124°43'1 1.0
2017-Mar-18 15:33N 49°31' W 124°42'0 0.0
2017-Mar-18 09:26N 49°31' W 124°42'0 0.0
2017-Mar-18 08:32N 49°31' W 124°42'0 0.0
2017-Mar-18 05:16N 49°31' W 124°42'0 0.4
2017-Mar-18 04:33N 49°30' W 124°42'1 0.8
2017-Mar-18 03:33N 49°30' W 124°43'1 1.0
2017-Mar-18 02:30N 49°31' W 124°42'1 1.1
2017-Mar-18 01:33N 49°30' W 124°43'0 0.0
2017-Mar-18 00:33N 49°30' W 124°43'0 0.0
2017-Mar-17 23:33N 49°30' W 124°43'0 0.0
2017-Mar-17 22:33N 49°30' W 124°43'666.2
2017-Mar-17 22:28N 49°32' W 124°51'6 6.3
2017-Mar-17 21:33N 49°30' W 124°43'0 0.0
2017-Mar-17 20:33N 49°30' W 124°43'0 0.0
2017-Mar-17 19:33N 49°30' W 124°43'0 0.0
2017-Mar-17 18:33N 49°30' W 124°43'0 0.0
2017-Mar-17 17:30N 49°30' W 124°43'0 0.0
2017-Mar-17 16:33N 49°30' W 124°43'0 0.3
2017-Mar-17 15:32N 49°30' W 124°42'1 0.5
2017-Mar-17 14:33N 49°30' W 124°42'0 0.0
2017-Mar-17 06:14N 49°31' W 124°42'6330.3
2017-Mar-17 06:13N 49°32' W 124°51'6 3.2
2017-Mar-17 04:26N 49°31' W 124°42'0 0.0
2017-Mar-17 03:26N 49°31' W 124°42'1 0.5
2017-Mar-17 01:33N 49°30' W 124°43'0 0.0
2017-Mar-17 00:33N 49°30' W 124°43'0 0.0
2017-Mar-16 23:33N 49°30' W 124°43'0 0.0
2017-Mar-16 22:33N 49°30' W 124°43'0 0.0
2017-Mar-16 21:33N 49°30' W 124°43'0 0.0
2017-Mar-16 20:33N 49°30' W 124°43'0 0.0
2017-Mar-16 19:34N 49°30' W 124°43'0 0.0
2017-Mar-16 18:33N 49°30' W 124°43'0 0.0
2017-Mar-16 17:33N 49°30' W 124°43'625.4
2017-Mar-16 17:19N 49°32' W 124°51'6 7.5
2017-Mar-16 16:33N 49°30' W 124°43'0 0.4
2017-Mar-16 15:32N 49°30' W 124°42'0 0.3
2017-Mar-16 14:32N 49°30' W 124°42'0 0.0
2017-Mar-16 07:24N 49°31' W 124°42'1 0.2
2017-Mar-16 01:33N 49°30' W 124°43'0 0.0
2017-Mar-16 00:32N 49°30' W 124°43'0 0.0
2017-Mar-15 23:33N 49°30' W 124°43'0 0.0
2017-Mar-15 22:33N 49°30' W 124°43'0 0.0
2017-Mar-15 21:33N 49°30' W 124°43'0 0.1
2017-Mar-15 20:33N 49°30' W 124°43'0 0.1
2017-Mar-15 19:33N 49°30' W 124°43'0 0.0
2017-Mar-15 18:33N 49°30' W 124°43'0 0.0
2017-Mar-15 17:33N 49°30' W 124°43'642.5
2017-Mar-15 17:25N 49°32' W 124°51'6 6.6
2017-Mar-15 16:33N 49°30' W 124°43'1 1.0
2017-Mar-15 15:31N 49°31' W 124°42'0 0.0
2017-Mar-15 12:05N 49°31' W 124°42'0 0.0
2017-Mar-15 11:29N 49°31' W 124°42'0 0.0
2017-Mar-15 10:10N 49°31' W 124°42'0 0.0
2017-Mar-15 07:07N 49°31' W 124°42'6 2.8
2017-Mar-15 05:04N 49°32' W 124°51'6 2.1
2017-Mar-15 02:19N 49°31' W 124°42'1 1.3
2017-Mar-15 01:33N 49°30' W 124°43'0 0.0
2017-Mar-15 00:33N 49°30' W 124°43'0 0.0
2017-Mar-14 23:33N 49°30' W 124°43'0 0.0
2017-Mar-14 22:33N 49°30' W 124°43'0 0.1
2017-Mar-14 21:33N 49°30' W 124°42'0 0.1
2017-Mar-14 20:34N 49°30' W 124°43'0 0.0
2017-Mar-14 19:34N 49°30' W 124°43'0 0.0
2017-Mar-14 18:33N 49°30' W 124°43'0 0.0
2017-Mar-14 17:34N 49°30' W 124°43'0 0.0
2017-Mar-14 16:34N 49°30' W 124°43'1 0.9
2017-Mar-14 15:33N 49°31' W 124°42'0 0.1
2017-Mar-14 14:34N 49°30' W 124°42'0 0.1
2017-Mar-14 12:07N 49°31' W 124°42'0 0.0
2017-Mar-14 02:13N 49°31' W 124°42'1 1.5
2017-Mar-14 01:33N 49°30' W 124°43'0 0.0
2017-Mar-14 00:33N 49°30' W 124°43'0 0.0
2017-Mar-13 23:33N 49°30' W 124°43'0 0.0
2017-Mar-13 22:33N 49°30' W 124°43'0 0.0
2017-Mar-13 21:33N 49°30' W 124°43'0 0.0
2017-Mar-13 20:33N 49°30' W 124°43'0 0.0
2017-Mar-13 19:33N 49°30' W 124°43'0 0.0
2017-Mar-13 18:33N 49°30' W 124°43'0 0.0
2017-Mar-13 17:33N 49°30' W 124°43'0 0.0
2017-Mar-13 16:32N 49°30' W 124°43'0 0.1
2017-Mar-13 15:32N 49°30' W 124°42'1 0.7
2017-Mar-13 14:32N 49°30' W 124°42'0 0.2
2017-Mar-13 13:26N 49°31' W 124°42'6 5.2
2017-Mar-13 12:20N 49°32' W 124°51'6 3.0
2017-Mar-13 10:27N 49°31' W 124°42'653.3
2017-Mar-13 10:20N 49°32' W 124°51'6 7.0
2017-Mar-13 09:31N 49°31' W 124°42'0 0.0
2017-Mar-13 08:32N 49°31' W 124°42'0 0.0
2017-Mar-13 07:11N 49°31' W 124°42'0 0.0
2017-Mar-13 06:17N 49°31' W 124°42'6 2.9
2017-Mar-13 04:20N 49°32' W 124°51'0 0.0
2017-Mar-13 03:32N 49°32' W 124°51'6 4.0
2017-Mar-13 02:08N 49°31' W 124°42'  

Dump ship's entire track history